WetterOnline ( https://www.wetteronline.de )

Wetter aktuell Gera

Aktuelles Wetter: Gera/Leumnitz (311m)

6-stündlich | Neueste Meldungen
Ortszeit Temperatur Wetter
Mo, 15.08. 2:00 20.0° C bedeckt
So, 14.08. 20:00 26.5° C leicht bewölkt
So, 14.08. 14:00 29.5° C leicht bewölkt
So, 14.08. 8:00 18.2° C leicht bewölkt
So, 14.08. 2:00 18.5° C wolkig
Sa, 13.08. 20:00 23.2° C bewölkt
Sa, 13.08. 14:00 24.4° C bewölkt
Sa, 13.08. 8:00 15.2° C leicht bewölkt
Ortszeit Temperatur Wetter
Mo, 15.08. 5:00 17.9° C leicht bewölkt
Mo, 15.08. 4:50 17.9° C leicht bewölkt
Mo, 15.08. 4:40 17.7° C leicht bewölkt
Mo, 15.08. 4:30 19.1° C wolkenlos
Mo, 15.08. 4:20 19.1° C wolkenlos
Mo, 15.08. 4:10 18.8° C wolkenlos
Mo, 15.08. 4:00 19.4° C fast wolkenlos
Mo, 15.08. 3:30 19.2° C wolkig
Mo, 15.08. 3:00 19.0° C bedeckt
Mo, 15.08. 2:30 19.7° C bedeckt
Mo, 15.08. 2:00 20.0° C bedeckt
Ortszeit Relative Feuchte Sichtweite
Mo, 15.08. 2:00 68% 45 km
So, 14.08. 20:00 40% 50 km
So, 14.08. 14:00 37% 35 km
So, 14.08. 8:00 82% 18 km
So, 14.08. 2:00 80% 40 km
Sa, 13.08. 20:00 58% 45 km
Sa, 13.08. 14:00 53% 45 km
Sa, 13.08. 8:00 67% 45 km
Ortszeit Relative Feuchte Sichtweite
Mo, 15.08. 5:00 74% 35 km
Mo, 15.08. 4:50 74% -
Mo, 15.08. 4:40 74% -
Mo, 15.08. 4:30 71% 35 km
Mo, 15.08. 4:20 71% -
Mo, 15.08. 4:10 71% -
Mo, 15.08. 4:00 70% 45 km
Mo, 15.08. 3:30 70% 40 km
Mo, 15.08. 3:00 70% 45 km
Mo, 15.08. 2:30 68% 40 km
Mo, 15.08. 2:00 68% 45 km
Ortszeit Niederschlagsmenge Niederschlagsart
Mo, 15.08. 2:00 0.0 l/m2 in 6 Std. -
So, 14.08. 20:00 0.0 l/m2 in 12 Std. -
So, 14.08. 14:00 0.0 l/m2 in 6 Std. -
So, 14.08. 8:00 0.0 l/m2 in 12 Std. -
So, 14.08. 2:00 0.0 l/m2 in 6 Std. -
Sa, 13.08. 20:00 0.0 l/m2 in 12 Std. -
Sa, 13.08. 14:00 0.0 l/m2 in 6 Std. -
Sa, 13.08. 8:00 0.0 l/m2 in 12 Std. -
Ortszeit Niederschlagsmenge Niederschlagsart
Mo, 15.08. 5:00 0.0 l/m2 in 1 Std. -
Mo, 15.08. 4:50 keine Meldung -
Mo, 15.08. 4:40 keine Meldung -
Mo, 15.08. 4:30 0.0 l/m2 in 1 Std. -
Mo, 15.08. 4:20 keine Meldung -
Mo, 15.08. 4:10 keine Meldung -
Mo, 15.08. 4:00 0.0 l/m2 in 1 Std. -
Mo, 15.08. 3:30 0.0 l/m2 in 1 Std. -
Mo, 15.08. 3:00 0.0 l/m2 in 1 Std. -
Mo, 15.08. 2:30 0.0 l/m2 in 1 Std. -
Mo, 15.08. 2:00 0.0 l/m2 in 1 Std. -
Ortszeit Stärke Spitze Richtung
km/h Bft. km/h Grad Sektor
Mo, 15.08. 2:00 6 1 20 170° S
So, 14.08. 20:00 17 3 41 80° O
So, 14.08. 14:00 15 3 37 80° O
So, 14.08. 8:00 7 2 11 90° O
So, 14.08. 2:00 7 2 19 90° O
Sa, 13.08. 20:00 13 3 37 90° O
Sa, 13.08. 14:00 19 3 35 60° NO
Sa, 13.08. 8:00 6 1 9 250° W
Ortszeit Stärke Spitze Richtung
km/h Bft. km/h Grad Sektor
Mo, 15.08. 5:00 11 2 14 150° SO
Mo, 15.08. 4:50 11 2 - 150° SO
Mo, 15.08. 4:40 9 2 - 150° SO
Mo, 15.08. 4:30 7 2 7 130° SO
Mo, 15.08. 4:20 7 2 - 130° SO
Mo, 15.08. 4:10 6 1 - 120° SO
Mo, 15.08. 4:00 6 1 7 130° SO
Mo, 15.08. 3:30 4 1 7 120° SO
Mo, 15.08. 3:00 4 1 11 130° SO
Mo, 15.08. 2:30 7 2 11 210° SW
Mo, 15.08. 2:00 6 1 13 170° S
Ortszeit Untergrenze Bedeckung Gattung
total tief tief mittel hoch
Mo, 15.08. 2:00 3900 m 8/8 8/8 - - -
So, 14.08. 20:00 3300 m 3/8 3/8 - - -
So, 14.08. 14:00 1500 m 4/8 1/8 - - -
So, 14.08. 8:00 9000 m 3/8 0/8 - - -
So, 14.08. 2:00 10500 m 8/8 0/8 - - -
Sa, 13.08. 20:00 1080 m 8/8 7/8 - - -
Sa, 13.08. 14:00 1140 m 8/8 7/8 - - -
Sa, 13.08. 8:00 9000 m 6/8 0/8 - - -
Ortszeit Bedeckungsgrad in Achtel und Wolkenuntergrenze
Mo, 15.08. 5:00 3(4200m)
Mo, 15.08. 4:50 3(4200m)
Mo, 15.08. 4:40 4
Mo, 15.08. 4:30 keine Wolken
Mo, 15.08. 4:20 keine Wolken
Mo, 15.08. 4:10 keine Wolken
Mo, 15.08. 4:00 1(4200m)
Mo, 15.08. 3:30 6(4200m)
Mo, 15.08. 3:00 8(4200m)
Mo, 15.08. 2:30 8(4200m)
Mo, 15.08. 2:00 8(3900m)
Ortszeit Luftdruck NN (hPa) Tendenz (hPa in 3 Std.)
Mo, 15.08. 2:00 1006 - 1,1
So, 14.08. 20:00 1006 - 0,8
So, 14.08. 14:00 1009 - 1,9
So, 14.08. 8:00 1013 - 0,9
So, 14.08. 2:00 1015 - 0,7
Sa, 13.08. 20:00 1015 - 1,1
Sa, 13.08. 14:00 1017 - 0,6
Sa, 13.08. 8:00 1019 0,0
Ortszeit Luftdruck NN (hPa) Tendenz (hPa in 3 Std.)
Mo, 15.08. 5:00 1006 - 0,5
Mo, 15.08. 4:50 1006 keine Meldung
Mo, 15.08. 4:40 1006 keine Meldung
Mo, 15.08. 4:30 1005 - 0,9
Mo, 15.08. 4:20 1005 keine Meldung
Mo, 15.08. 4:10 1006 keine Meldung
Mo, 15.08. 4:00 1005 - 1,2
Mo, 15.08. 3:30 1006 - 1,2
Mo, 15.08. 3:00 1006 - 1,3
Mo, 15.08. 2:30 1006 - 1,4
Mo, 15.08. 2:00 1006 - 1,1
Ortszeit Schneehöhe (cm)
Mo, 15.08. 2:00 0
So, 14.08. 20:00 0
So, 14.08. 14:00 0
So, 14.08. 8:00 0
So, 14.08. 2:00 0
Sa, 13.08. 20:00 0
Sa, 13.08. 14:00 0
Sa, 13.08. 8:00 0
Ortszeit Schneehöhe (cm)
Mo, 15.08. 5:00 0
Mo, 15.08. 4:50 0
Mo, 15.08. 4:40 0
Mo, 15.08. 4:30 0
Mo, 15.08. 4:20 0
Mo, 15.08. 4:10 0
Mo, 15.08. 4:00 0
Mo, 15.08. 3:30 0
Mo, 15.08. 3:00 0
Mo, 15.08. 2:30 0
Mo, 15.08. 2:00 0
Link zu dieser Seite / Seite empfehlen

Das Wetter in ...